sensor_id;sensor_type;location;lat;lon;timestamp;P1;durP1;ratioP1;P2;durP2;ratioP2
78893;SDS011;68282;42.698;23.350;2023-06-24T00:01:27;11.55;;;8.55;;
78893;SDS011;68282;42.698;23.350;2023-06-24T00:03:53;10.50;;;8.23;;
78893;SDS011;68282;42.698;23.350;2023-06-24T00:06:19;15.02;;;9.05;;
78893;SDS011;68282;42.698;23.350;2023-06-24T00:08:45;10.27;;;8.18;;
78893;SDS011;68282;42.698;23.350;2023-06-24T00:11:11;12.10;;;8.30;;
78893;SDS011;68282;42.698;23.350;2023-06-24T00:13:38;12.38;;;8.68;;
78893;SDS011;68282;42.698;23.350;2023-06-24T00:16:04;12.52;;;8.48;;
78893;SDS011;68282;42.698;23.350;2023-06-24T00:18:31;13.20;;;8.88;;
78893;SDS011;68282;42.698;23.350;2023-06-24T00:20:57;10.90;;;8.68;;
78893;SDS011;68282;42.698;23.350;2023-06-24T00:23:22;11.18;;;8.90;;
78893;SDS011;68282;42.698;23.350;2023-06-24T00:28:17;8.85;;;7.68;;
78893;SDS011;68282;42.698;23.350;2023-06-24T00:30:42;12.23;;;9.00;;
78893;SDS011;68282;42.698;23.350;2023-06-24T00:33:08;11.57;;;8.40;;
78893;SDS011;68282;42.698;23.350;2023-06-24T00:38:04;10.70;;;7.80;;
78893;SDS011;68282;42.698;23.350;2023-06-24T00:40:31;10.23;;;8.05;;
78893;SDS011;68282;42.698;23.350;2023-06-24T00:42:56;10.07;;;7.93;;
78893;SDS011;68282;42.698;23.350;2023-06-24T00:45:23;9.57;;;7.85;;
78893;SDS011;68282;42.698;23.350;2023-06-24T00:47:49;12.35;;;8.52;;
78893;SDS011;68282;42.698;23.350;2023-06-24T00:50:15;11.27;;;8.18;;
78893;SDS011;68282;42.698;23.350;2023-06-24T00:52:41;11.32;;;8.70;;
78893;SDS011;68282;42.698;23.350;2023-06-24T00:55:11;12.07;;;8.18;;
78893;SDS011;68282;42.698;23.350;2023-06-24T00:57:42;9.95;;;7.97;;
78893;SDS011;68282;42.698;23.350;2023-06-24T01:00:09;12.68;;;7.97;;
78893;SDS011;68282;42.698;23.350;2023-06-24T01:02:39;11.02;;;8.57;;
78893;SDS011;68282;42.698;23.350;2023-06-24T01:05:07;11.00;;;8.27;;
78893;SDS011;68282;42.698;23.350;2023-06-24T01:07:33;11.90;;;7.90;;
78893;SDS011;68282;42.698;23.350;2023-06-24T01:10:03;11.77;;;7.95;;
78893;SDS011;68282;42.698;23.350;2023-06-24T01:12:33;11.95;;;7.88;;
78893;SDS011;68282;42.698;23.350;2023-06-24T01:15:04;11.60;;;8.50;;
78893;SDS011;68282;42.698;23.350;2023-06-24T01:17:33;11.32;;;8.13;;
78893;SDS011;68282;42.698;23.350;2023-06-24T01:20:08;11.80;;;8.43;;
78893;SDS011;68282;42.698;23.350;2023-06-24T01:22:43;14.70;;;7.95;;
78893;SDS011;68282;42.698;23.350;2023-06-24T01:33:58;8.93;;;7.50;;
78893;SDS011;68282;42.698;23.350;2023-06-24T01:36:38;10.70;;;7.68;;
78893;SDS011;68282;42.698;23.350;2023-06-24T01:39:09;10.70;;;8.13;;
78893;SDS011;68282;42.698;23.350;2023-06-24T01:41:40;11.00;;;7.93;;
78893;SDS011;68282;42.698;23.350;2023-06-24T01:44:11;14.55;;;8.60;;
78893;SDS011;68282;42.698;23.350;2023-06-24T01:46:39;11.20;;;8.82;;
78893;SDS011;68282;42.698;23.350;2023-06-24T01:49:07;14.00;;;8.15;;
78893;SDS011;68282;42.698;23.350;2023-06-24T01:51:35;12.25;;;8.43;;
78893;SDS011;68282;42.698;23.350;2023-06-24T01:54:04;11.43;;;8.40;;
78893;SDS011;68282;42.698;23.350;2023-06-24T01:59:00;12.63;;;8.27;;
78893;SDS011;68282;42.698;23.350;2023-06-24T02:01:28;11.75;;;8.10;;
78893;SDS011;68282;42.698;23.350;2023-06-24T02:03:56;10.73;;;8.00;;
78893;SDS011;68282;42.698;23.350;2023-06-24T02:06:22;12.70;;;9.93;;
78893;SDS011;68282;42.698;23.350;2023-06-24T02:08:51;15.10;;;8.63;;
78893;SDS011;68282;42.698;23.350;2023-06-24T02:11:19;12.73;;;9.55;;
78893;SDS011;68282;42.698;23.350;2023-06-24T02:13:48;11.07;;;8.60;;
78893;SDS011;68282;42.698;23.350;2023-06-24T02:16:17;11.70;;;8.88;;
78893;SDS011;68282;42.698;23.350;2023-06-24T02:18:43;11.85;;;9.35;;
78893;SDS011;68282;42.698;23.350;2023-06-24T02:21:09;11.05;;;8.23;;
78893;SDS011;68282;42.698;23.350;2023-06-24T02:23:37;12.05;;;8.60;;
78893;SDS011;68282;42.698;23.350;2023-06-24T02:26:03;12.85;;;9.32;;
78893;SDS011;68282;42.698;23.350;2023-06-24T02:28:31;11.38;;;9.15;;
78893;SDS011;68282;42.698;23.350;2023-06-24T02:30:58;13.25;;;9.55;;
78893;SDS011;68282;42.698;23.350;2023-06-24T02:33:24;19.55;;;11.63;;
78893;SDS011;68282;42.698;23.350;2023-06-24T02:35:51;23.55;;;13.63;;
78893;SDS011;68282;42.698;23.350;2023-06-24T02:38:17;15.48;;;10.48;;
78893;SDS011;68282;42.698;23.350;2023-06-24T02:40:45;15.48;;;11.60;;
78893;SDS011;68282;42.698;23.350;2023-06-24T02:43:11;17.30;;;11.35;;
78893;SDS011;68282;42.698;23.350;2023-06-24T02:45:36;15.88;;;11.15;;
78893;SDS011;68282;42.698;23.350;2023-06-24T02:48:03;19.40;;;12.63;;
78893;SDS011;68282;42.698;23.350;2023-06-24T02:50:30;17.02;;;11.93;;
78893;SDS011;68282;42.698;23.350;2023-06-24T02:52:57;18.50;;;11.55;;
78893;SDS011;68282;42.698;23.350;2023-06-24T02:55:24;13.65;;;10.27;;
78893;SDS011;68282;42.698;23.350;2023-06-24T02:57:50;16.48;;;11.25;;
78893;SDS011;68282;42.698;23.350;2023-06-24T03:00:16;15.27;;;12.98;;
78893;SDS011;68282;42.698;23.350;2023-06-24T03:02:42;16.33;;;11.02;;
78893;SDS011;68282;42.698;23.350;2023-06-24T03:05:10;16.55;;;10.68;;
78893;SDS011;68282;42.698;23.350;2023-06-24T03:07:36;16.33;;;11.13;;
78893;SDS011;68282;42.698;23.350;2023-06-24T03:10:03;17.70;;;10.63;;
78893;SDS011;68282;42.698;23.350;2023-06-24T03:12:30;18.30;;;11.10;;
78893;SDS011;68282;42.698;23.350;2023-06-24T03:14:56;14.68;;;10.88;;
78893;SDS011;68282;42.698;23.350;2023-06-24T03:17:22;13.93;;;10.32;;
78893;SDS011;68282;42.698;23.350;2023-06-24T03:19:47;16.02;;;11.63;;
78893;SDS011;68282;42.698;23.350;2023-06-24T03:22:13;21.05;;;11.02;;
78893;SDS011;68282;42.698;23.350;2023-06-24T03:24:38;15.77;;;11.13;;
78893;SDS011;68282;42.698;23.350;2023-06-24T03:27:04;14.32;;;10.57;;
78893;SDS011;68282;42.698;23.350;2023-06-24T03:29:29;22.73;;;11.20;;
78893;SDS011;68282;42.698;23.350;2023-06-24T03:31:55;15.48;;;11.15;;
78893;SDS011;68282;42.698;23.350;2023-06-24T03:34:20;17.60;;;11.52;;
78893;SDS011;68282;42.698;23.350;2023-06-24T03:36:46;18.55;;;11.13;;
78893;SDS011;68282;42.698;23.350;2023-06-24T03:39:11;16.25;;;11.95;;
78893;SDS011;68282;42.698;23.350;2023-06-24T03:41:37;20.58;;;13.35;;
78893;SDS011;68282;42.698;23.350;2023-06-24T03:44:04;14.93;;;12.30;;
78893;SDS011;68282;42.698;23.350;2023-06-24T03:46:29;18.15;;;12.32;;
78893;SDS011;68282;42.698;23.350;2023-06-24T03:48:58;17.55;;;12.13;;
78893;SDS011;68282;42.698;23.350;2023-06-24T03:51:23;16.90;;;12.13;;
78893;SDS011;68282;42.698;23.350;2023-06-24T03:53:49;23.05;;;12.90;;
78893;SDS011;68282;42.698;23.350;2023-06-24T03:56:15;15.65;;;12.00;;
78893;SDS011;68282;42.698;23.350;2023-06-24T03:58:41;18.23;;;12.20;;
78893;SDS011;68282;42.698;23.350;2023-06-24T04:01:06;16.30;;;11.63;;
78893;SDS011;68282;42.698;23.350;2023-06-24T04:03:32;20.42;;;12.35;;
78893;SDS011;68282;42.698;23.350;2023-06-24T04:05:57;17.40;;;12.15;;
78893;SDS011;68282;42.698;23.350;2023-06-24T04:08:23;16.85;;;11.80;;
78893;SDS011;68282;42.698;23.350;2023-06-24T04:10:54;17.98;;;12.63;;
78893;SDS011;68282;42.698;23.350;2023-06-24T04:13:20;16.45;;;11.95;;
78893;SDS011;68282;42.698;23.350;2023-06-24T04:15:45;19.20;;;12.63;;
78893;SDS011;68282;42.698;23.350;2023-06-24T04:18:11;17.45;;;11.55;;
78893;SDS011;68282;42.698;23.350;2023-06-24T04:20:36;17.30;;;12.93;;
78893;SDS011;68282;42.698;23.350;2023-06-24T04:23:03;20.42;;;12.93;;
78893;SDS011;68282;42.698;23.350;2023-06-24T04:25:28;17.00;;;11.80;;
78893;SDS011;68282;42.698;23.350;2023-06-24T04:27:54;16.98;;;12.20;;
78893;SDS011;68282;42.698;23.350;2023-06-24T04:30:19;15.98;;;11.75;;
78893;SDS011;68282;42.698;23.350;2023-06-24T04:32:45;18.05;;;12.38;;
78893;SDS011;68282;42.698;23.350;2023-06-24T04:35:10;19.30;;;12.50;;
78893;SDS011;68282;42.698;23.350;2023-06-24T04:37:35;22.52;;;12.45;;
78893;SDS011;68282;42.698;23.350;2023-06-24T04:40:03;18.73;;;12.05;;
78893;SDS011;68282;42.698;23.350;2023-06-24T04:42:29;19.75;;;11.77;;
78893;SDS011;68282;42.698;23.350;2023-06-24T04:44:55;20.20;;;12.32;;
78893;SDS011;68282;42.698;23.350;2023-06-24T04:47:20;17.45;;;11.30;;
78893;SDS011;68282;42.698;23.350;2023-06-24T04:49:46;16.35;;;11.70;;
78893;SDS011;68282;42.698;23.350;2023-06-24T04:52:11;16.80;;;12.15;;
78893;SDS011;68282;42.698;23.350;2023-06-24T04:54:37;16.95;;;12.48;;
78893;SDS011;68282;42.698;23.350;2023-06-24T04:57:05;16.65;;;12.88;;
78893;SDS011;68282;42.698;23.350;2023-06-24T04:59:33;19.33;;;12.30;;
78893;SDS011;68282;42.698;23.350;2023-06-24T05:01:58;16.40;;;12.63;;
78893;SDS011;68282;42.698;23.350;2023-06-24T05:04:24;18.65;;;13.63;;
78893;SDS011;68282;42.698;23.350;2023-06-24T05:06:49;18.23;;;13.27;;
78893;SDS011;68282;42.698;23.350;2023-06-24T05:09:15;19.02;;;13.57;;
78893;SDS011;68282;42.698;23.350;2023-06-24T05:11:40;18.98;;;13.35;;
78893;SDS011;68282;42.698;23.350;2023-06-24T05:14:06;17.20;;;12.45;;
78893;SDS011;68282;42.698;23.350;2023-06-24T05:16:32;19.45;;;13.45;;
78893;SDS011;68282;42.698;23.350;2023-06-24T05:18:57;19.80;;;13.60;;
78893;SDS011;68282;42.698;23.350;2023-06-24T05:21:23;19.83;;;13.27;;
78893;SDS011;68282;42.698;23.350;2023-06-24T05:23:48;17.63;;;12.38;;
78893;SDS011;68282;42.698;23.350;2023-06-24T05:26:14;23.02;;;13.32;;
78893;SDS011;68282;42.698;23.350;2023-06-24T05:28:39;17.77;;;12.48;;
78893;SDS011;68282;42.698;23.350;2023-06-24T05:31:05;16.05;;;13.23;;
78893;SDS011;68282;42.698;23.350;2023-06-24T05:33:30;15.32;;;11.80;;
78893;SDS011;68282;42.698;23.350;2023-06-24T05:35:56;16.35;;;11.30;;
78893;SDS011;68282;42.698;23.350;2023-06-24T05:38:21;14.02;;;9.85;;
78893;SDS011;68282;42.698;23.350;2023-06-24T05:40:47;15.68;;;10.55;;
78893;SDS011;68282;42.698;23.350;2023-06-24T05:43:12;15.43;;;10.95;;
78893;SDS011;68282;42.698;23.350;2023-06-24T05:45:38;18.48;;;11.13;;
78893;SDS011;68282;42.698;23.350;2023-06-24T05:48:03;16.08;;;11.00;;
78893;SDS011;68282;42.698;23.350;2023-06-24T05:50:29;16.38;;;11.18;;
78893;SDS011;68282;42.698;23.350;2023-06-24T05:52:54;15.88;;;11.48;;
78893;SDS011;68282;42.698;23.350;2023-06-24T05:55:20;18.90;;;12.25;;
78893;SDS011;68282;42.698;23.350;2023-06-24T05:57:45;20.13;;;11.85;;
78893;SDS011;68282;42.698;23.350;2023-06-24T06:00:11;17.00;;;11.30;;
78893;SDS011;68282;42.698;23.350;2023-06-24T06:02:37;16.33;;;12.63;;
78893;SDS011;68282;42.698;23.350;2023-06-24T06:05:02;20.30;;;13.43;;
78893;SDS011;68282;42.698;23.350;2023-06-24T06:07:28;23.30;;;14.32;;
78893;SDS011;68282;42.698;23.350;2023-06-24T06:09:53;15.45;;;11.25;;
78893;SDS011;68282;42.698;23.350;2023-06-24T06:12:19;15.00;;;10.50;;
78893;SDS011;68282;42.698;23.350;2023-06-24T06:14:44;19.77;;;10.75;;
78893;SDS011;68282;42.698;23.350;2023-06-24T06:17:10;14.70;;;10.82;;
78893;SDS011;68282;42.698;23.350;2023-06-24T06:19:36;15.20;;;10.95;;
78893;SDS011;68282;42.698;23.350;2023-06-24T06:22:04;13.05;;;11.20;;
78893;SDS011;68282;42.698;23.350;2023-06-24T06:24:30;15.35;;;10.63;;
78893;SDS011;68282;42.698;23.350;2023-06-24T06:26:57;16.60;;;11.18;;
78893;SDS011;68282;42.698;23.350;2023-06-24T06:29:23;13.35;;;10.02;;
78893;SDS011;68282;42.698;23.350;2023-06-24T06:31:48;12.98;;;10.25;;
78893;SDS011;68282;42.698;23.350;2023-06-24T06:34:13;17.92;;;10.73;;
78893;SDS011;68282;42.698;23.350;2023-06-24T06:36:39;14.10;;;10.63;;
78893;SDS011;68282;42.698;23.350;2023-06-24T06:39:04;15.05;;;9.43;;
78893;SDS011;68282;42.698;23.350;2023-06-24T06:41:30;13.40;;;9.85;;
78893;SDS011;68282;42.698;23.350;2023-06-24T06:43:55;14.57;;;9.75;;
78893;SDS011;68282;42.698;23.350;2023-06-24T06:46:21;15.10;;;10.35;;
78893;SDS011;68282;42.698;23.350;2023-06-24T06:48:46;13.38;;;10.23;;
78893;SDS011;68282;42.698;23.350;2023-06-24T06:51:12;14.75;;;10.30;;
78893;SDS011;68282;42.698;23.350;2023-06-24T06:53:38;16.67;;;10.98;;
78893;SDS011;68282;42.698;23.350;2023-06-24T06:56:04;12.32;;;10.07;;
78893;SDS011;68282;42.698;23.350;2023-06-24T06:58:29;15.27;;;10.70;;
78893;SDS011;68282;42.698;23.350;2023-06-24T07:00:55;15.63;;;10.50;;
78893;SDS011;68282;42.698;23.350;2023-06-24T07:03:20;14.50;;;10.88;;
78893;SDS011;68282;42.698;23.350;2023-06-24T07:05:46;13.07;;;10.88;;
78893;SDS011;68282;42.698;23.350;2023-06-24T07:08:12;14.60;;;10.32;;
78893;SDS011;68282;42.698;23.350;2023-06-24T07:10:37;12.73;;;10.57;;
78893;SDS011;68282;42.698;23.350;2023-06-24T07:13:03;16.00;;;10.45;;
78893;SDS011;68282;42.698;23.350;2023-06-24T07:15:28;15.43;;;10.63;;
78893;SDS011;68282;42.698;23.350;2023-06-24T07:17:54;13.27;;;10.05;;
78893;SDS011;68282;42.698;23.350;2023-06-24T07:20:20;15.57;;;11.15;;
78893;SDS011;68282;42.698;23.350;2023-06-24T07:22:46;13.82;;;10.20;;
78893;SDS011;68282;42.698;23.350;2023-06-24T07:25:12;13.90;;;9.80;;
78893;SDS011;68282;42.698;23.350;2023-06-24T07:27:37;14.10;;;9.63;;
78893;SDS011;68282;42.698;23.350;2023-06-24T07:30:04;15.88;;;10.20;;
78893;SDS011;68282;42.698;23.350;2023-06-24T07:32:30;12.35;;;9.70;;
78893;SDS011;68282;42.698;23.350;2023-06-24T07:34:55;11.35;;;9.13;;
78893;SDS011;68282;42.698;23.350;2023-06-24T07:37:21;13.43;;;11.00;;
78893;SDS011;68282;42.698;23.350;2023-06-24T07:39:47;11.90;;;9.15;;
78893;SDS011;68282;42.698;23.350;2023-06-24T07:42:12;10.98;;;9.45;;
78893;SDS011;68282;42.698;23.350;2023-06-24T07:44:43;15.32;;;10.30;;
78893;SDS011;68282;42.698;23.350;2023-06-24T07:47:09;14.02;;;9.43;;
78893;SDS011;68282;42.698;23.350;2023-06-24T07:49:35;12.05;;;9.70;;
78893;SDS011;68282;42.698;23.350;2023-06-24T07:52:00;12.55;;;10.40;;
78893;SDS011;68282;42.698;23.350;2023-06-24T07:54:26;13.10;;;9.20;;
78893;SDS011;68282;42.698;23.350;2023-06-24T07:56:51;11.88;;;9.82;;
78893;SDS011;68282;42.698;23.350;2023-06-24T07:59:17;13.73;;;9.93;;
78893;SDS011;68282;42.698;23.350;2023-06-24T08:01:42;12.57;;;10.07;;
78893;SDS011;68282;42.698;23.350;2023-06-24T08:04:08;14.85;;;10.65;;
78893;SDS011;68282;42.698;23.350;2023-06-24T08:06:33;14.85;;;11.20;;
78893;SDS011;68282;42.698;23.350;2023-06-24T08:08:58;14.77;;;10.50;;
78893;SDS011;68282;42.698;23.350;2023-06-24T08:11:24;12.40;;;10.68;;
78893;SDS011;68282;42.698;23.350;2023-06-24T08:13:49;15.57;;;11.75;;
78893;SDS011;68282;42.698;23.350;2023-06-24T08:16:16;12.27;;;9.65;;
78893;SDS011;68282;42.698;23.350;2023-06-24T08:18:42;12.23;;;9.75;;
78893;SDS011;68282;42.698;23.350;2023-06-24T08:21:07;13.48;;;10.30;;
78893;SDS011;68282;42.698;23.350;2023-06-24T08:23:33;14.45;;;12.18;;
78893;SDS011;68282;42.698;23.350;2023-06-24T08:25:58;13.45;;;10.25;;
78893;SDS011;68282;42.698;23.350;2023-06-24T08:28:23;13.25;;;9.65;;
78893;SDS011;68282;42.698;23.350;2023-06-24T08:30:49;13.43;;;9.98;;
78893;SDS011;68282;42.698;23.350;2023-06-24T08:33:14;13.23;;;10.32;;
78893;SDS011;68282;42.698;23.350;2023-06-24T08:35:40;13.90;;;10.20;;
78893;SDS011;68282;42.698;23.350;2023-06-24T08:38:05;12.98;;;10.27;;
78893;SDS011;68282;42.698;23.350;2023-06-24T08:40:33;18.83;;;12.73;;
78893;SDS011;68282;42.698;23.350;2023-06-24T08:42:59;13.90;;;9.77;;
78893;SDS011;68282;42.698;23.350;2023-06-24T08:45:24;15.30;;;10.25;;
78893;SDS011;68282;42.698;23.350;2023-06-24T08:47:50;14.52;;;10.35;;
78893;SDS011;68282;42.698;23.350;2023-06-24T08:50:17;13.40;;;10.35;;
78893;SDS011;68282;42.698;23.350;2023-06-24T08:52:51;19.55;;;10.73;;
78893;SDS011;68282;42.698;23.350;2023-06-24T08:55:21;15.07;;;10.45;;
78893;SDS011;68282;42.698;23.350;2023-06-24T08:57:48;14.13;;;11.30;;
78893;SDS011;68282;42.698;23.350;2023-06-24T09:00:14;14.75;;;9.45;;
78893;SDS011;68282;42.698;23.350;2023-06-24T09:02:40;15.73;;;9.55;;
78893;SDS011;68282;42.698;23.350;2023-06-24T09:05:06;16.63;;;12.55;;
78893;SDS011;68282;42.698;23.350;2023-06-24T09:07:33;16.48;;;11.75;;
78893;SDS011;68282;42.698;23.350;2023-06-24T09:09:59;15.32;;;11.23;;
78893;SDS011;68282;42.698;23.350;2023-06-24T09:12:30;13.70;;;9.88;;
78893;SDS011;68282;42.698;23.350;2023-06-24T09:14:57;15.32;;;10.45;;
78893;SDS011;68282;42.698;23.350;2023-06-24T09:17:23;13.02;;;10.45;;
78893;SDS011;68282;42.698;23.350;2023-06-24T09:19:49;14.98;;;10.80;;
78893;SDS011;68282;42.698;23.350;2023-06-24T09:22:14;13.68;;;10.80;;
78893;SDS011;68282;42.698;23.350;2023-06-24T09:27:13;12.57;;;9.48;;
78893;SDS011;68282;42.698;23.350;2023-06-24T09:29:40;13.68;;;10.07;;
78893;SDS011;68282;42.698;23.350;2023-06-24T09:32:07;13.50;;;10.68;;
78893;SDS011;68282;42.698;23.350;2023-06-24T09:34:33;13.82;;;10.55;;
78893;SDS011;68282;42.698;23.350;2023-06-24T09:37:01;13.95;;;10.82;;
78893;SDS011;68282;42.698;23.350;2023-06-24T09:39:27;12.65;;;10.27;;
78893;SDS011;68282;42.698;23.350;2023-06-24T09:42:00;13.98;;;11.00;;
78893;SDS011;68282;42.698;23.350;2023-06-24T09:44:27;14.18;;;10.50;;
78893;SDS011;68282;42.698;23.350;2023-06-24T09:46:53;13.32;;;10.52;;
78893;SDS011;68282;42.698;23.350;2023-06-24T09:49:21;15.30;;;10.07;;
78893;SDS011;68282;42.698;23.350;2023-06-24T09:51:47;14.18;;;10.65;;
78893;SDS011;68282;42.698;23.350;2023-06-24T09:54:14;14.70;;;10.65;;
78893;SDS011;68282;42.698;23.350;2023-06-24T09:56:45;16.08;;;10.65;;
78893;SDS011;68282;42.698;23.350;2023-06-24T09:59:13;16.50;;;9.43;;
78893;SDS011;68282;42.698;23.350;2023-06-24T10:01:40;11.70;;;9.32;;
78893;SDS011;68282;42.698;23.350;2023-06-24T10:04:08;19.17;;;12.18;;
78893;SDS011;68282;42.698;23.350;2023-06-24T10:06:35;11.77;;;9.38;;
78893;SDS011;68282;42.698;23.350;2023-06-24T10:09:01;13.80;;;9.63;;
78893;SDS011;68282;42.698;23.350;2023-06-24T10:11:27;13.13;;;9.95;;
78893;SDS011;68282;42.698;23.350;2023-06-24T10:13:53;13.48;;;9.45;;
78893;SDS011;68282;42.698;23.350;2023-06-24T10:16:19;14.05;;;10.07;;
78893;SDS011;68282;42.698;23.350;2023-06-24T10:18:45;16.70;;;11.48;;
78893;SDS011;68282;42.698;23.350;2023-06-24T10:21:11;12.45;;;10.23;;
78893;SDS011;68282;42.698;23.350;2023-06-24T10:26:11;11.23;;;9.38;;
78893;SDS011;68282;42.698;23.350;2023-06-24T10:36:53;19.95;;;9.00;;
78893;SDS011;68282;42.698;23.350;2023-06-24T10:39:36;12.50;;;8.77;;
78893;SDS011;68282;42.698;23.350;2023-06-24T10:44:48;12.50;;;9.52;;
78893;SDS011;68282;42.698;23.350;2023-06-24T10:47:17;10.57;;;8.18;;
78893;SDS011;68282;42.698;23.350;2023-06-24T10:49:43;13.57;;;10.48;;
78893;SDS011;68282;42.698;23.350;2023-06-24T10:52:12;12.65;;;8.82;;
78893;SDS011;68282;42.698;23.350;2023-06-24T10:54:38;10.25;;;8.10;;
78893;SDS011;68282;42.698;23.350;2023-06-24T10:57:04;11.05;;;7.88;;
78893;SDS011;68282;42.698;23.350;2023-06-24T10:59:48;12.40;;;7.63;;
78893;SDS011;68282;42.698;23.350;2023-06-24T11:02:15;12.35;;;8.40;;
78893;SDS011;68282;42.698;23.350;2023-06-24T11:05:01;10.68;;;8.02;;
78893;SDS011;68282;42.698;23.350;2023-06-24T11:07:29;12.98;;;8.10;;
78893;SDS011;68282;42.698;23.350;2023-06-24T11:09:58;10.90;;;8.82;;
78893;SDS011;68282;42.698;23.350;2023-06-24T11:12:25;10.27;;;7.40;;
78893;SDS011;68282;42.698;23.350;2023-06-24T11:14:59;10.73;;;8.85;;
78893;SDS011;68282;42.698;23.350;2023-06-24T11:17:27;9.95;;;7.80;;
78893;SDS011;68282;42.698;23.350;2023-06-24T11:19:53;13.35;;;7.60;;
78893;SDS011;68282;42.698;23.350;2023-06-24T11:22:19;10.80;;;7.20;;
78893;SDS011;68282;42.698;23.350;2023-06-24T11:24:45;8.68;;;6.78;;
78893;SDS011;68282;42.698;23.350;2023-06-24T11:27:10;10.20;;;7.60;;
78893;SDS011;68282;42.698;23.350;2023-06-24T11:29:36;13.18;;;8.13;;
78893;SDS011;68282;42.698;23.350;2023-06-24T11:32:02;13.98;;;10.82;;
78893;SDS011;68282;42.698;23.350;2023-06-24T11:34:28;10.65;;;7.43;;
78893;SDS011;68282;42.698;23.350;2023-06-24T11:36:54;8.20;;;6.80;;
78893;SDS011;68282;42.698;23.350;2023-06-24T11:39:25;6.90;;;5.40;;
78893;SDS011;68282;42.698;23.350;2023-06-24T11:41:53;7.05;;;5.50;;
78893;SDS011;68282;42.698;23.350;2023-06-24T11:44:25;9.93;;;6.40;;
78893;SDS011;68282;42.698;23.350;2023-06-24T11:46:51;6.55;;;5.28;;
78893;SDS011;68282;42.698;23.350;2023-06-24T11:49:19;12.15;;;6.03;;
78893;SDS011;68282;42.698;23.350;2023-06-24T11:51:46;7.40;;;6.22;;
78893;SDS011;68282;42.698;23.350;2023-06-24T11:54:18;9.43;;;7.63;;
78893;SDS011;68282;42.698;23.350;2023-06-24T11:56:49;11.80;;;8.35;;
78893;SDS011;68282;42.698;23.350;2023-06-24T11:59:21;17.33;;;11.82;;
78893;SDS011;68282;42.698;23.350;2023-06-24T12:01:54;10.52;;;8.57;;
78893;SDS011;68282;42.698;23.350;2023-06-24T12:04:23;9.02;;;7.32;;
78893;SDS011;68282;42.698;23.350;2023-06-24T12:06:53;11.90;;;8.25;;
78893;SDS011;68282;42.698;23.350;2023-06-24T12:09:19;8.70;;;7.00;;
78893;SDS011;68282;42.698;23.350;2023-06-24T12:11:45;12.52;;;7.15;;
78893;SDS011;68282;42.698;23.350;2023-06-24T12:14:12;8.40;;;6.10;;
78893;SDS011;68282;42.698;23.350;2023-06-24T12:16:38;8.70;;;7.50;;
78893;SDS011;68282;42.698;23.350;2023-06-24T12:19:05;10.93;;;7.35;;
78893;SDS011;68282;42.698;23.350;2023-06-24T12:23:59;9.75;;;7.25;;
78893;SDS011;68282;42.698;23.350;2023-06-24T12:26:25;9.00;;;7.15;;
78893;SDS011;68282;42.698;23.350;2023-06-24T12:28:50;9.73;;;7.40;;
78893;SDS011;68282;42.698;23.350;2023-06-24T12:31:18;11.80;;;8.40;;
78893;SDS011;68282;42.698;23.350;2023-06-24T12:33:44;8.82;;;7.63;;
78893;SDS011;68282;42.698;23.350;2023-06-24T12:36:09;10.43;;;8.07;;
78893;SDS011;68282;42.698;23.350;2023-06-24T12:38:35;9.00;;;7.57;;
78893;SDS011;68282;42.698;23.350;2023-06-24T12:41:01;8.93;;;6.95;;
78893;SDS011;68282;42.698;23.350;2023-06-24T12:43:27;9.48;;;6.85;;
78893;SDS011;68282;42.698;23.350;2023-06-24T12:45:52;8.50;;;6.82;;
78893;SDS011;68282;42.698;23.350;2023-06-24T12:48:17;10.85;;;7.20;;
78893;SDS011;68282;42.698;23.350;2023-06-24T12:50:43;9.82;;;7.80;;
78893;SDS011;68282;42.698;23.350;2023-06-24T12:53:08;9.80;;;7.63;;
78893;SDS011;68282;42.698;23.350;2023-06-24T12:55:38;9.35;;;7.35;;
78893;SDS011;68282;42.698;23.350;2023-06-24T12:58:03;9.85;;;7.78;;
78893;SDS011;68282;42.698;23.350;2023-06-24T13:00:29;10.30;;;8.02;;
78893;SDS011;68282;42.698;23.350;2023-06-24T13:02:54;11.32;;;7.88;;
78893;SDS011;68282;42.698;23.350;2023-06-24T13:05:20;13.48;;;8.98;;
78893;SDS011;68282;42.698;23.350;2023-06-24T13:07:45;11.38;;;8.63;;
78893;SDS011;68282;42.698;23.350;2023-06-24T13:10:10;9.88;;;7.53;;
78893;SDS011;68282;42.698;23.350;2023-06-24T13:12:39;10.65;;;7.68;;
78893;SDS011;68282;42.698;23.350;2023-06-24T13:15:05;9.95;;;8.57;;
78893;SDS011;68282;42.698;23.350;2023-06-24T13:17:31;10.00;;;7.47;;
78893;SDS011;68282;42.698;23.350;2023-06-24T13:19:56;9.95;;;7.93;;
78893;SDS011;68282;42.698;23.350;2023-06-24T13:22:22;9.10;;;7.57;;
78893;SDS011;68282;42.698;23.350;2023-06-24T13:24:48;9.93;;;8.50;;
78893;SDS011;68282;42.698;23.350;2023-06-24T13:27:14;14.50;;;8.95;;
78893;SDS011;68282;42.698;23.350;2023-06-24T13:29:39;11.20;;;7.38;;
78893;SDS011;68282;42.698;23.350;2023-06-24T13:32:04;22.92;;;8.30;;
78893;SDS011;68282;42.698;23.350;2023-06-24T13:34:30;14.23;;;7.03;;
78893;SDS011;68282;42.698;23.350;2023-06-24T13:36:56;16.25;;;5.72;;
78893;SDS011;68282;42.698;23.350;2023-06-24T13:39:21;15.98;;;5.18;;
78893;SDS011;68282;42.698;23.350;2023-06-24T13:41:49;18.00;;;6.53;;
78893;SDS011;68282;42.698;23.350;2023-06-24T13:44:15;23.25;;;7.97;;
78893;SDS011;68282;42.698;23.350;2023-06-24T13:46:41;10.35;;;6.28;;
78893;SDS011;68282;42.698;23.350;2023-06-24T13:49:08;13.20;;;5.72;;
78893;SDS011;68282;42.698;23.350;2023-06-24T13:51:33;13.30;;;5.05;;
78893;SDS011;68282;42.698;23.350;2023-06-24T13:53:59;11.20;;;4.90;;
78893;SDS011;68282;42.698;23.350;2023-06-24T13:56:25;11.27;;;5.15;;
78893;SDS011;68282;42.698;23.350;2023-06-24T13:58:52;7.60;;;5.18;;
78893;SDS011;68282;42.698;23.350;2023-06-24T14:01:19;6.97;;;4.60;;
78893;SDS011;68282;42.698;23.350;2023-06-24T14:03:45;7.40;;;4.72;;
78893;SDS011;68282;42.698;23.350;2023-06-24T14:06:10;11.77;;;4.75;;
78893;SDS011;68282;42.698;23.350;2023-06-24T14:08:39;8.07;;;5.15;;
78893;SDS011;68282;42.698;23.350;2023-06-24T14:11:04;17.77;;;5.38;;
78893;SDS011;68282;42.698;23.350;2023-06-24T14:13:30;11.85;;;4.40;;
78893;SDS011;68282;42.698;23.350;2023-06-24T14:15:56;12.18;;;5.22;;
78893;SDS011;68282;42.698;23.350;2023-06-24T14:18:22;15.27;;;5.40;;
78893;SDS011;68282;42.698;23.350;2023-06-24T14:20:48;9.35;;;5.68;;
78893;SDS011;68282;42.698;23.350;2023-06-24T14:23:13;10.13;;;5.25;;
78893;SDS011;68282;42.698;23.350;2023-06-24T14:25:39;10.50;;;4.85;;
78893;SDS011;68282;42.698;23.350;2023-06-24T14:28:05;10.15;;;5.40;;
78893;SDS011;68282;42.698;23.350;2023-06-24T14:30:31;12.93;;;6.25;;
78893;SDS011;68282;42.698;23.350;2023-06-24T14:32:56;11.00;;;5.38;;
78893;SDS011;68282;42.698;23.350;2023-06-24T14:35:24;14.27;;;5.68;;
78893;SDS011;68282;42.698;23.350;2023-06-24T14:37:50;11.48;;;5.22;;
78893;SDS011;68282;42.698;23.350;2023-06-24T14:40:16;15.07;;;5.95;;
78893;SDS011;68282;42.698;23.350;2023-06-24T14:42:41;12.60;;;5.72;;
78893;SDS011;68282;42.698;23.350;2023-06-24T14:45:07;11.77;;;5.53;;
78893;SDS011;68282;42.698;23.350;2023-06-24T14:47:35;13.95;;;5.68;;